Terminal Aerodrome Forecast
Issued by NWS

Home | Current Version | Previous Version | Text Only | Print | Product List | Glossary On
Versions: 1 2 3 4 5 6 7 8 9 10 11 12 13 14 15 16 17 18
000
FTAK31 PAJN 252300
TAFASI
TAF
PASI 252325Z 2600/2624 29008KT P6SM FEW040 SCT120
     FM261200 33005KT P6SM OVC030
     FM262000 28006KT P6SM SCT030 OVC050=

USA.gov is the U.S. government's official web portal to all federal, state and local government web resources and services.